createdAt,value
2018-02-14T00:02:08.262Z,11.27
2018-02-14T00:04:35.907Z,10.20
2018-02-14T00:07:04.343Z,12.03
2018-02-14T00:09:32.332Z,12.83
2018-02-14T00:12:00.315Z,11.60
2018-02-14T00:14:28.030Z,13.73
2018-02-14T00:16:56.019Z,14.90
2018-02-14T00:19:24.339Z,11.53
2018-02-14T00:21:52.697Z,13.93
2018-02-14T00:24:21.684Z,11.97
2018-02-14T00:26:49.496Z,13.27
2018-02-14T00:29:17.557Z,14.30
2018-02-14T00:31:45.315Z,13.77
2018-02-14T00:34:13.307Z,12.20
2018-02-14T00:36:41.299Z,13.27
2018-02-14T00:39:09.005Z,13.00
2018-02-14T00:41:37.171Z,19.70
2018-02-14T00:44:05.309Z,13.60
2018-02-14T00:46:33.723Z,14.60
2018-02-14T00:49:03.348Z,13.40
2018-02-14T00:51:31.754Z,14.77
2018-02-14T00:54:00.858Z,14.80
2018-02-14T00:56:29.391Z,15.27
2018-02-14T00:58:56.982Z,12.00
2018-02-14T01:01:25.534Z,14.63
2018-02-14T01:03:53.510Z,11.63
2018-02-14T01:06:21.773Z,15.63
2018-02-14T01:08:50.213Z,12.33
2018-02-14T01:11:20.144Z,13.33
2018-02-14T01:13:48.146Z,13.00
2018-02-14T01:16:16.128Z,9.47
2018-02-14T01:18:48.616Z,13.67
2018-02-14T01:21:16.226Z,12.13
2018-02-14T01:23:44.601Z,13.37
2018-02-14T01:26:13.050Z,11.57
2018-02-14T01:28:41.437Z,13.87
2018-02-14T01:31:09.822Z,12.00
2018-02-14T01:33:37.434Z,11.17
2018-02-14T01:36:05.909Z,13.93
2018-02-14T01:38:33.800Z,12.63
2018-02-14T01:41:01.894Z,15.70
2018-02-14T01:43:30.280Z,14.63
2018-02-14T01:45:58.266Z,11.77
2018-02-14T01:48:25.994Z,11.10
2018-02-14T01:50:54.027Z,14.13
2018-02-14T01:53:28.219Z,12.73
2018-02-14T01:55:56.215Z,13.67
2018-02-14T01:58:24.586Z,15.00
2018-02-14T02:00:52.970Z,16.93
2018-02-14T02:03:21.002Z,14.17
2018-02-14T02:05:48.612Z,17.00
2018-02-14T02:10:50.586Z,12.03
2018-02-14T02:13:19.298Z,17.20
2018-02-14T02:15:47.254Z,14.33
2018-02-14T02:18:15.650Z,13.27
2018-02-14T02:20:43.669Z,13.23
2018-02-14T02:23:12.212Z,19.30
2018-02-14T02:25:39.859Z,15.27
2018-02-14T02:28:07.890Z,15.43
2018-02-14T02:30:36.293Z,18.33
2018-02-14T02:33:05.863Z,13.33
2018-02-14T02:35:34.234Z,17.53
2018-02-14T02:38:03.642Z,15.40
2018-02-14T02:40:32.142Z,16.33
2018-02-14T02:42:59.863Z,15.10
2018-02-14T02:45:27.445Z,20.10
2018-02-14T02:47:55.026Z,16.70
2018-02-14T02:50:23.070Z,13.83
2018-02-14T02:52:51.686Z,19.00
2018-02-14T02:55:20.613Z,14.77
2018-02-14T02:57:49.026Z,16.83
2018-02-14T03:00:16.755Z,22.27
2018-02-14T03:02:45.051Z,20.53
2018-02-14T03:05:13.450Z,18.53
2018-02-14T03:07:41.599Z,22.00
2018-02-14T03:10:10.010Z,17.97
2018-02-14T03:12:38.406Z,22.23
2018-02-14T03:15:06.421Z,17.30
2018-02-14T03:17:34.400Z,19.43
2018-02-14T03:20:02.374Z,14.90
2018-02-14T03:22:30.774Z,16.73
2018-02-14T03:24:58.840Z,20.93
2018-02-14T03:27:27.223Z,15.50
2018-02-14T03:29:54.903Z,19.30
2018-02-14T03:32:23.797Z,18.30
2018-02-14T03:34:52.207Z,17.93
2018-02-14T03:37:20.258Z,16.83
2018-02-14T03:39:47.954Z,19.37
2018-02-14T03:42:16.713Z,19.43
2018-02-14T03:44:44.672Z,16.17
2018-02-14T03:47:12.708Z,17.27
2018-02-14T03:49:40.334Z,17.20
2018-02-14T03:52:08.307Z,20.50
2018-02-14T03:54:36.820Z,21.10
2018-02-14T03:57:04.902Z,18.90
2018-02-14T03:59:33.298Z,17.07
2018-02-14T04:02:02.034Z,19.13
2018-02-14T04:04:29.688Z,14.20
2018-02-14T04:06:57.558Z,16.87
2018-02-14T04:09:25.297Z,15.07
2018-02-14T04:11:53.707Z,13.70
2018-02-14T04:14:21.424Z,15.43
2018-02-14T04:16:49.194Z,16.70
2018-02-14T04:19:18.106Z,19.50
2018-02-14T04:21:46.192Z,15.00
2018-02-14T04:24:14.656Z,15.57
2018-02-14T04:26:43.080Z,17.33
2018-02-14T04:29:11.078Z,17.87
2018-02-14T04:31:39.496Z,16.20
2018-02-14T04:34:07.490Z,16.00
2018-02-14T04:36:35.135Z,17.43
2018-02-14T04:39:03.221Z,17.50
2018-02-14T04:41:31.640Z,19.80
2018-02-14T04:43:59.681Z,15.17
2018-02-14T04:46:27.784Z,16.97
2018-02-14T04:48:56.315Z,16.43
2018-02-14T04:51:24.458Z,17.80
2018-02-14T04:53:53.725Z,18.33
2018-02-14T04:56:25.725Z,17.33
2018-02-14T04:58:55.016Z,17.20
2018-02-14T05:01:24.982Z,20.40
2018-02-14T05:03:54.261Z,15.80
2018-02-14T05:06:24.236Z,18.83
2018-02-14T05:08:54.307Z,19.77
2018-02-14T05:11:23.688Z,20.57
2018-02-14T05:13:54.263Z,15.90
2018-02-14T05:16:23.544Z,21.03
2018-02-14T05:18:54.426Z,17.87
2018-02-14T05:21:23.732Z,20.00
2018-02-14T05:23:53.580Z,23.57
2018-02-14T05:26:22.991Z,18.70
2018-02-14T05:28:52.284Z,21.70
2018-02-14T05:31:21.556Z,30.30
2018-02-14T05:33:51.864Z,31.50
2018-02-14T05:36:22.060Z,26.30
2018-02-14T05:38:51.324Z,29.83
2018-02-14T05:41:22.037Z,25.57
2018-02-14T05:43:51.585Z,24.13
2018-02-14T05:46:23.483Z,24.90
2018-02-14T05:48:52.755Z,21.03
2018-02-14T05:51:22.570Z,22.87
2018-02-14T05:53:51.828Z,23.17
2018-02-14T05:56:21.083Z,20.07
2018-02-14T05:58:50.496Z,20.33
2018-02-14T06:01:19.748Z,21.03
2018-02-14T06:03:49.762Z,21.30
2018-02-14T06:06:19.009Z,21.30
2018-02-14T06:08:48.290Z,17.90
2018-02-14T06:11:17.717Z,24.57
2018-02-14T06:13:47.049Z,22.03
2018-02-14T06:16:16.299Z,19.10
2018-02-14T06:18:46.931Z,23.60
2018-02-14T06:21:16.266Z,24.83
2018-02-14T06:23:45.638Z,28.23
2018-02-14T06:26:14.887Z,23.53
2018-02-14T06:28:44.266Z,20.63
2018-02-14T06:31:14.254Z,22.47
2018-02-14T06:33:43.776Z,21.27
2018-02-14T06:36:13.727Z,19.70
2018-02-14T06:38:43.240Z,18.80
2018-02-14T06:41:12.696Z,19.83
2018-02-14T06:43:41.979Z,22.00
2018-02-14T06:46:11.257Z,23.27
2018-02-14T06:48:40.773Z,22.40
2018-02-14T06:51:10.261Z,22.97
2018-02-14T06:53:39.640Z,21.30
2018-02-14T06:56:09.051Z,22.37
2018-02-14T06:58:38.343Z,20.93
2018-02-14T07:01:07.616Z,21.43
2018-02-14T07:03:36.875Z,25.12
2018-02-14T07:06:06.181Z,24.73
2018-02-14T07:08:35.456Z,21.47
2018-02-14T07:11:04.704Z,23.17
2018-02-14T07:13:33.995Z,17.70
2018-02-14T07:16:03.270Z,21.50
2018-02-14T07:18:32.584Z,23.30
2018-02-14T07:23:36.029Z,25.03
2018-02-14T07:26:05.714Z,24.00
2018-02-14T07:28:35.002Z,22.13
2018-02-14T07:31:04.892Z,22.10
2018-02-14T07:33:34.313Z,21.20
2018-02-14T07:36:03.601Z,22.30
2018-02-14T07:38:32.854Z,24.10
2018-02-14T07:41:02.279Z,23.03
2018-02-14T07:43:31.542Z,20.57
2018-02-14T07:46:00.888Z,21.53
2018-02-14T07:48:30.175Z,24.03
2018-02-14T07:51:03.020Z,25.23
2018-02-14T07:53:32.612Z,27.50
2018-02-14T07:56:01.942Z,26.77
2018-02-14T07:58:31.199Z,22.23
2018-02-14T08:01:04.473Z,24.07
2018-02-14T08:03:33.705Z,27.90
2018-02-14T08:06:03.012Z,30.97
2018-02-14T08:08:32.675Z,35.47
2018-02-14T08:11:02.502Z,32.77
2018-02-14T08:13:31.769Z,28.10
2018-02-14T08:16:01.122Z,28.03
2018-02-14T08:18:30.445Z,24.20
2018-02-14T08:20:59.726Z,24.77
2018-02-14T08:23:30.823Z,27.67
2018-02-14T08:25:58.812Z,24.87
2018-02-14T08:28:26.825Z,28.30
2018-02-14T08:30:54.473Z,26.27
2018-02-14T08:33:23.997Z,27.40
2018-02-14T08:35:52.374Z,30.90
2018-02-14T08:38:20.737Z,26.93
2018-02-14T08:40:49.127Z,25.20
2018-02-14T08:43:17.469Z,28.30
2018-02-14T08:45:45.874Z,28.80
2018-02-14T08:48:14.357Z,24.50
2018-02-14T08:50:42.799Z,26.17
2018-02-14T08:53:10.761Z,31.90
2018-02-14T08:55:38.357Z,23.20
2018-02-14T08:58:06.022Z,25.50
2018-02-14T09:00:34.116Z,29.53
2018-02-14T09:03:02.005Z,24.00
2018-02-14T09:05:29.998Z,23.27
2018-02-14T09:07:58.332Z,21.17
2018-02-14T09:10:26.687Z,24.50
2018-02-14T09:12:55.149Z,25.47
2018-02-14T09:15:23.495Z,27.47
2018-02-14T09:17:51.481Z,25.57
2018-02-14T09:20:19.095Z,25.40
2018-02-14T09:22:47.119Z,27.13
2018-02-14T09:25:15.017Z,25.80
2018-02-14T09:27:44.250Z,25.60
2018-02-14T09:30:12.387Z,27.80
2018-02-14T09:32:40.783Z,30.90
2018-02-14T09:35:08.936Z,24.77
2018-02-14T09:37:38.485Z,22.97
2018-02-14T09:40:06.080Z,29.83
2018-02-14T09:42:33.676Z,27.43
2018-02-14T09:45:01.571Z,27.53
2018-02-14T09:47:29.206Z,27.90
2018-02-14T09:49:56.814Z,28.37
2018-02-14T09:52:24.461Z,29.97
2018-02-14T09:54:52.991Z,28.90
2018-02-14T09:57:20.994Z,32.37
2018-02-14T09:59:50.310Z,30.17
2018-02-14T10:02:18.304Z,25.00
2018-02-14T10:04:46.665Z,28.80
2018-02-14T10:07:15.889Z,29.77
2018-02-14T10:09:45.754Z,27.63
2018-02-14T10:12:14.112Z,31.43
2018-02-14T10:14:47.411Z,29.80
2018-02-14T10:17:16.300Z,28.93
2018-02-14T10:19:43.901Z,27.33
2018-02-14T10:22:11.899Z,38.40
2018-02-14T10:24:41.579Z,23.73
2018-02-14T10:27:09.178Z,31.60
2018-02-14T10:29:37.152Z,28.70
2018-02-14T10:32:04.755Z,32.97
2018-02-14T10:34:32.347Z,27.53
2018-02-14T10:37:05.495Z,27.47
2018-02-14T10:39:33.128Z,31.77
2018-02-14T10:42:00.742Z,29.07
2018-02-14T10:44:29.108Z,28.90
2018-02-14T10:46:57.493Z,30.60
2018-02-14T10:49:25.206Z,26.73
2018-02-14T10:51:53.096Z,33.83
2018-02-14T10:54:21.458Z,38.77
2018-02-14T10:56:49.087Z,34.07
2018-02-14T10:59:16.687Z,35.70
2018-02-14T11:01:50.419Z,29.43
2018-02-14T11:04:24.108Z,24.07
2018-02-14T11:06:52.462Z,27.83
2018-02-14T11:09:21.035Z,26.50
2018-02-14T11:11:48.704Z,26.47
2018-02-14T11:14:16.304Z,25.07
2018-02-14T11:16:44.361Z,25.07
2018-02-14T11:19:12.083Z,25.83
2018-02-14T11:21:40.785Z,24.00
2018-02-14T11:24:08.439Z,27.63
2018-02-14T11:26:36.020Z,25.60
2018-02-14T11:29:03.638Z,25.10
2018-02-14T11:31:31.219Z,24.33
2018-02-14T11:33:58.816Z,24.70
2018-02-14T11:36:27.143Z,21.60
2018-02-14T11:38:55.450Z,27.90
2018-02-14T11:41:24.594Z,23.93
2018-02-14T11:43:52.191Z,27.30
2018-02-14T11:46:19.848Z,23.50
2018-02-14T11:48:49.312Z,24.23
2018-02-14T11:51:17.132Z,25.50
2018-02-14T11:53:44.771Z,25.30
2018-02-14T11:56:13.187Z,20.67
2018-02-14T11:58:40.886Z,23.33
2018-02-14T12:01:09.230Z,23.20
2018-02-14T12:03:36.851Z,19.60
2018-02-14T12:06:05.192Z,20.90
2018-02-14T12:08:32.815Z,19.00
2018-02-14T12:11:00.523Z,18.17
2018-02-14T12:13:28.282Z,22.70
2018-02-14T12:15:55.998Z,26.50
2018-02-14T12:18:24.081Z,21.53
2018-02-14T12:20:51.695Z,23.03
2018-02-14T12:23:19.273Z,21.80
2018-02-14T12:25:46.989Z,22.80
2018-02-14T12:28:14.619Z,21.43
2018-02-14T12:30:42.405Z,19.87
2018-02-14T12:33:10.276Z,24.87
2018-02-14T12:35:37.957Z,24.70
2018-02-14T12:38:07.174Z,19.00
2018-02-14T12:40:34.829Z,20.43
2018-02-14T12:43:02.856Z,18.43
2018-02-14T12:45:30.661Z,20.30
2018-02-14T12:47:58.249Z,18.43
2018-02-14T12:50:26.736Z,19.77
2018-02-14T12:52:54.354Z,17.57
2018-02-14T12:55:21.994Z,17.63
2018-02-14T12:57:50.587Z,18.03
2018-02-14T13:00:18.275Z,16.70
2018-02-14T13:02:45.839Z,15.60
2018-02-14T13:05:13.585Z,18.20
2018-02-14T13:07:41.313Z,15.90
2018-02-14T13:10:09.054Z,14.17
2018-02-14T13:12:36.719Z,20.50
2018-02-14T13:15:06.494Z,16.77
2018-02-14T13:17:34.122Z,17.00
2018-02-14T13:20:01.765Z,14.73
2018-02-14T13:22:30.121Z,13.70
2018-02-14T13:24:58.513Z,14.10
2018-02-14T13:27:26.852Z,14.83
2018-02-14T13:29:54.467Z,15.53
2018-02-14T13:32:22.160Z,13.77
2018-02-14T13:34:49.756Z,13.20
2018-02-14T13:37:17.453Z,13.00
2018-02-14T13:39:45.106Z,14.47
2018-02-14T13:42:13.243Z,12.33
2018-02-14T13:44:40.894Z,11.80
2018-02-14T13:47:08.487Z,12.80
2018-02-14T13:49:36.080Z,12.87
2018-02-14T13:52:03.702Z,12.70
2018-02-14T13:54:31.364Z,13.73
2018-02-14T13:56:59.021Z,11.53
2018-02-14T13:59:26.931Z,11.97
2018-02-14T14:01:54.556Z,9.67
2018-02-14T14:04:22.142Z,13.53
2018-02-14T14:06:49.745Z,10.17
2018-02-14T14:09:18.137Z,10.63
2018-02-14T14:11:45.730Z,10.30
2018-02-14T14:14:13.730Z,9.00
2018-02-14T14:16:41.307Z,8.70
2018-02-14T14:19:09.649Z,11.70
2018-02-14T14:21:37.305Z,12.10
2018-02-14T14:24:05.069Z,13.30
2018-02-14T14:26:33.477Z,12.23
2018-02-14T14:29:01.134Z,11.53
2018-02-14T14:31:29.533Z,13.23
2018-02-14T14:33:57.937Z,10.23
2018-02-14T14:36:25.541Z,10.33
2018-02-14T14:38:53.207Z,10.20
2018-02-14T14:41:20.815Z,11.27
2018-02-14T14:43:48.401Z,9.60
2018-02-14T14:46:16.158Z,12.33
2018-02-14T14:48:43.752Z,8.67
2018-02-14T14:51:11.328Z,10.67
2018-02-14T14:53:39.898Z,9.10
2018-02-14T14:56:07.865Z,8.70
2018-02-14T14:58:36.311Z,8.93
2018-02-14T15:01:03.923Z,6.80
2018-02-14T15:03:31.531Z,9.13
2018-02-14T15:05:59.188Z,8.00
2018-02-14T15:08:26.785Z,9.00
2018-02-14T15:10:54.385Z,12.87
2018-02-14T15:13:22.868Z,8.70
2018-02-14T15:15:50.463Z,8.57
2018-02-14T15:18:18.071Z,11.20
2018-02-14T15:20:46.421Z,9.67
2018-02-14T15:23:14.079Z,11.20
2018-02-14T15:25:41.675Z,11.40
2018-02-14T15:28:10.121Z,9.67
2018-02-14T15:30:39.348Z,10.17
2018-02-14T15:33:06.969Z,8.43
2018-02-14T15:35:34.860Z,8.63
2018-02-14T15:38:02.520Z,8.97
2018-02-14T15:40:30.132Z,14.20
2018-02-14T15:42:58.576Z,8.47
2018-02-14T15:45:26.955Z,10.00
2018-02-14T15:47:54.597Z,13.57
2018-02-14T15:50:22.183Z,9.70
2018-02-14T15:52:49.785Z,9.70
2018-02-14T15:55:18.419Z,11.30
2018-02-14T15:57:46.033Z,11.10
2018-02-14T16:00:14.394Z,12.17
2018-02-14T16:02:42.566Z,8.53
2018-02-14T16:05:10.919Z,10.37
2018-02-14T16:07:38.923Z,19.07
2018-02-14T16:10:07.396Z,9.60
2018-02-14T16:12:36.548Z,17.80
2018-02-14T16:15:04.260Z,9.20
2018-02-14T16:17:32.714Z,14.50
2018-02-14T16:20:00.814Z,11.20
2018-02-14T16:22:29.183Z,11.17
2018-02-14T16:24:58.057Z,12.03
2018-02-14T16:27:25.692Z,15.30
2018-02-14T16:29:54.097Z,19.57
2018-02-14T16:32:22.447Z,22.30
2018-02-14T16:34:50.827Z,25.40
2018-02-14T16:37:19.179Z,21.47
2018-02-14T16:39:46.873Z,26.83
2018-02-14T16:42:14.470Z,26.47
2018-02-14T16:44:42.831Z,26.23
2018-02-14T16:47:10.447Z,17.60
2018-02-14T16:49:38.500Z,17.50
2018-02-14T16:52:07.076Z,16.47
2018-02-14T16:54:35.119Z,16.50
2018-02-14T16:57:03.255Z,12.53
2018-02-14T16:59:31.625Z,15.30
2018-02-14T17:01:59.208Z,13.23
2018-02-14T17:04:27.628Z,11.67
2018-02-14T17:06:55.621Z,10.83
2018-02-14T17:09:24.182Z,12.93
2018-02-14T17:11:52.576Z,12.47
2018-02-14T17:14:21.708Z,16.97
2018-02-14T17:16:51.011Z,13.43
2018-02-14T17:19:19.036Z,13.60
2018-02-14T17:21:47.452Z,16.17
2018-02-14T17:24:15.784Z,11.63
2018-02-14T17:26:45.011Z,16.10
2018-02-14T17:29:12.690Z,13.13
2018-02-14T17:31:41.082Z,14.70
2018-02-14T17:34:09.479Z,13.40
2018-02-14T17:36:37.880Z,15.33
2018-02-14T17:39:07.093Z,11.10
2018-02-14T17:41:34.703Z,12.73
2018-02-14T17:44:02.749Z,14.00
2018-02-14T17:46:31.202Z,13.23
2018-02-14T17:48:58.796Z,15.63
2018-02-14T17:51:26.788Z,14.50
2018-02-14T17:53:55.172Z,15.97
2018-02-14T17:56:23.782Z,20.37
2018-02-14T17:58:52.310Z,19.30
2018-02-14T18:01:20.265Z,20.50
2018-02-14T18:03:48.363Z,19.97
2018-02-14T18:06:15.958Z,15.93
2018-02-14T18:08:44.559Z,16.87
2018-02-14T18:11:12.559Z,16.03
2018-02-14T18:13:40.951Z,12.93
2018-02-14T18:16:12.306Z,15.67
2018-02-14T18:18:40.300Z,13.70
2018-02-14T18:21:08.690Z,15.90
2018-02-14T18:23:37.199Z,15.60
2018-02-14T18:26:06.440Z,14.93
2018-02-14T18:28:34.254Z,15.30
2018-02-14T18:31:02.276Z,15.43
2018-02-14T18:33:30.667Z,14.80
2018-02-14T18:35:59.068Z,15.13
2018-02-14T18:38:27.433Z,16.27
2018-02-14T18:40:55.791Z,21.60
2018-02-14T18:43:24.237Z,17.97
2018-02-14T18:45:52.849Z,20.27
2018-02-14T18:48:21.133Z,20.93
2018-02-14T18:50:49.140Z,17.40
2018-02-14T18:53:16.755Z,16.90
2018-02-14T18:55:45.117Z,14.60
2018-02-14T18:58:13.183Z,13.37
2018-02-14T19:00:41.545Z,14.20
2018-02-14T19:03:09.904Z,13.20
2018-02-14T19:05:38.935Z,13.60
2018-02-14T19:08:06.560Z,11.40
2018-02-14T19:10:34.935Z,16.43
2018-02-14T19:13:02.537Z,18.40
2018-02-14T19:15:30.471Z,15.13
2018-02-14T19:17:58.588Z,18.37
2018-02-14T19:20:26.974Z,17.87
2018-02-14T19:22:54.575Z,15.97
2018-02-14T19:25:22.546Z,15.30
2018-02-14T19:27:51.165Z,12.63
2018-02-14T19:30:19.243Z,15.40
2018-02-14T19:32:47.612Z,12.97
2018-02-14T19:35:15.653Z,18.97
2018-02-14T19:37:44.062Z,18.30
2018-02-14T19:40:11.673Z,18.30
2018-02-14T19:42:39.672Z,18.07
2018-02-14T19:45:08.211Z,20.53
2018-02-14T19:47:36.264Z,20.33
2018-02-14T19:50:03.990Z,19.13
2018-02-14T19:52:32.725Z,17.90
2018-02-14T19:55:00.356Z,17.20
2018-02-14T19:57:28.767Z,17.07
2018-02-14T19:59:57.134Z,19.03
2018-02-14T20:02:25.890Z,18.50
2018-02-14T20:04:54.209Z,23.37
2018-02-14T20:07:22.189Z,17.93
2018-02-14T20:09:50.670Z,18.80
2018-02-14T20:12:19.203Z,19.40
2018-02-14T20:14:47.578Z,15.20
2018-02-14T20:17:15.598Z,19.57
2018-02-14T20:19:43.983Z,23.03
2018-02-14T20:22:13.085Z,16.13
2018-02-14T20:24:41.094Z,17.93
2018-02-14T20:27:09.446Z,20.83
2018-02-14T20:29:37.465Z,19.23
2018-02-14T20:32:05.105Z,20.57
2018-02-14T20:34:33.504Z,15.27
2018-02-14T20:37:01.884Z,17.07
2018-02-14T20:39:30.262Z,20.00
2018-02-14T20:41:59.012Z,19.70
2018-02-14T20:44:27.432Z,16.77
2018-02-14T20:46:55.055Z,16.30
2018-02-14T20:49:22.741Z,17.07
2018-02-14T20:51:50.755Z,17.63
2018-02-14T20:54:19.140Z,15.60
2018-02-14T20:56:47.486Z,17.40
2018-02-14T20:59:15.846Z,16.10
2018-02-14T21:01:44.230Z,19.87
2018-02-14T21:04:12.576Z,23.27
2018-02-14T21:06:41.761Z,19.17
2018-02-14T21:09:09.342Z,21.77
2018-02-14T21:11:36.945Z,20.33
2018-02-14T21:14:04.996Z,19.00
2018-02-14T21:16:33.008Z,16.60
2018-02-14T21:19:00.593Z,16.50
2018-02-14T21:21:28.183Z,17.87
2018-02-14T21:23:56.737Z,19.13
2018-02-14T21:26:24.362Z,19.87
2018-02-14T21:28:51.934Z,16.10
2018-02-14T21:31:20.317Z,16.97
2018-02-14T21:33:47.937Z,19.73
2018-02-14T21:36:16.325Z,21.97
2018-02-14T21:38:44.342Z,18.03
2018-02-14T21:41:11.946Z,15.50
2018-02-14T21:43:40.290Z,18.00
2018-02-14T21:46:07.911Z,17.67
2018-02-14T21:48:36.109Z,17.90
2018-02-14T21:51:04.144Z,17.40
2018-02-14T21:53:31.746Z,19.33
2018-02-14T21:55:59.359Z,18.00
2018-02-14T21:58:26.968Z,16.73
2018-02-14T22:00:55.580Z,16.93
2018-02-14T22:03:23.214Z,17.23
2018-02-14T22:05:51.154Z,19.20
2018-02-14T22:08:18.808Z,18.20
2018-02-14T22:10:46.451Z,21.03
2018-02-14T22:13:14.865Z,17.60
2018-02-14T22:15:42.535Z,18.27
2018-02-14T22:18:10.119Z,21.30
2018-02-14T22:20:38.124Z,24.20
2018-02-14T22:23:05.708Z,18.00
2018-02-14T22:25:33.286Z,19.57
2018-02-14T22:28:00.887Z,17.00
2018-02-14T22:30:29.267Z,21.90
2018-02-14T22:32:57.651Z,21.30
2018-02-14T22:35:26.082Z,17.40
2018-02-14T22:37:53.723Z,25.50
2018-02-14T22:40:21.305Z,26.10
2018-02-14T22:42:48.954Z,22.23
2018-02-14T22:45:16.549Z,24.10
2018-02-14T22:47:44.932Z,21.47
2018-02-14T22:50:13.329Z,23.87
2018-02-14T22:52:41.751Z,22.37
2018-02-14T22:55:09.390Z,23.57
2018-02-14T22:57:37.203Z,23.33
2018-02-14T23:00:04.831Z,26.20
2018-02-14T23:02:32.562Z,23.97
2018-02-14T23:05:00.136Z,22.50
2018-02-14T23:07:27.729Z,25.33
2018-02-14T23:09:55.308Z,27.20
2018-02-14T23:12:23.927Z,30.43
2018-02-14T23:14:51.644Z,25.57
2018-02-14T23:17:19.240Z,24.53
2018-02-14T23:19:47.611Z,25.87
2018-02-14T23:22:16.043Z,27.07
2018-02-14T23:24:43.622Z,24.37
2018-02-14T23:27:11.222Z,29.10
2018-02-14T23:29:38.862Z,27.40
2018-02-14T23:32:07.216Z,29.00
2018-02-14T23:34:34.828Z,30.50
2018-02-14T23:37:02.863Z,24.27
2018-02-14T23:39:30.459Z,27.57
2018-02-14T23:41:58.045Z,27.17
2018-02-14T23:44:25.651Z,26.53
2018-02-14T23:46:54.000Z,31.00
2018-02-14T23:49:21.626Z,27.33
2018-02-14T23:51:49.221Z,32.30
2018-02-14T23:54:16.842Z,30.90
2018-02-14T23:56:44.474Z,24.27
2018-02-14T23:59:12.098Z,27.67
